createdAt,value
2018-12-31T00:05:20.199Z,5.99
2018-12-31T00:08:09.016Z,5.45
2018-12-31T00:10:57.815Z,6.03
2018-12-31T00:13:46.700Z,4.43
2018-12-31T00:16:35.533Z,5.98
2018-12-31T00:19:24.327Z,6.02
2018-12-31T00:22:13.147Z,5.93
2018-12-31T00:25:01.954Z,5.93
2018-12-31T00:27:50.762Z,6.03
2018-12-31T00:30:39.592Z,5.92
2018-12-31T00:33:28.658Z,6.00
2018-12-31T00:36:17.470Z,5.91
2018-12-31T00:39:06.930Z,5.97
2018-12-31T00:41:56.051Z,5.96
2018-12-31T00:44:44.844Z,5.98
2018-12-31T00:47:33.666Z,5.78
2018-12-31T00:50:22.457Z,6.06
2018-12-31T00:56:06.064Z,6.00
2018-12-31T00:58:54.861Z,6.09
2018-12-31T01:01:43.680Z,4.72
2018-12-31T01:04:32.481Z,6.14
2018-12-31T01:07:21.298Z,6.12
2018-12-31T01:10:10.100Z,6.09
2018-12-31T01:12:58.911Z,6.10
2018-12-31T01:15:47.717Z,6.13
2018-12-31T01:18:36.521Z,4.60
2018-12-31T01:21:25.315Z,6.14
2018-12-31T01:24:14.141Z,6.26
2018-12-31T01:27:02.930Z,6.28
2018-12-31T01:29:51.742Z,4.82
2018-12-31T01:32:33.620Z,6.44
2018-12-31T01:35:22.434Z,6.43
2018-12-31T01:38:11.232Z,6.49
2018-12-31T01:41:00.052Z,6.04
2018-12-31T01:43:48.877Z,6.44
2018-12-31T01:46:37.970Z,6.35
2018-12-31T01:49:26.769Z,6.33
2018-12-31T01:52:15.606Z,6.38
2018-12-31T01:58:32.878Z,6.56
2018-12-31T02:01:21.676Z,5.45
2018-12-31T02:04:10.482Z,6.58
2018-12-31T02:06:59.303Z,6.49
2018-12-31T02:09:48.101Z,6.56
2018-12-31T02:12:36.923Z,6.53
2018-12-31T02:15:25.730Z,6.56
2018-12-31T02:18:14.537Z,5.96
2018-12-31T02:21:03.351Z,6.62
2018-12-31T02:23:52.179Z,6.52
2018-12-31T02:26:40.997Z,6.44
2018-12-31T02:29:29.800Z,6.59
2018-12-31T02:32:11.512Z,5.14
2018-12-31T02:35:00.302Z,6.64
2018-12-31T02:37:49.118Z,6.63
2018-12-31T02:40:37.935Z,5.25
2018-12-31T02:43:26.731Z,6.68
2018-12-31T02:46:15.549Z,6.67
2018-12-31T02:49:04.348Z,6.69
2018-12-31T02:54:47.504Z,6.69
2018-12-31T02:57:36.325Z,6.73
2018-12-31T03:00:25.117Z,6.73
2018-12-31T03:03:13.934Z,6.58
2018-12-31T03:06:02.723Z,6.72
2018-12-31T03:08:51.547Z,6.74
2018-12-31T03:11:40.347Z,6.72
2018-12-31T03:14:29.163Z,6.66
2018-12-31T03:17:17.959Z,6.71
2018-12-31T03:20:06.834Z,6.74
2018-12-31T03:22:55.647Z,6.77
2018-12-31T03:25:44.440Z,6.76
2018-12-31T03:28:33.245Z,6.67
2018-12-31T03:31:15.289Z,6.57
2018-12-31T03:34:04.101Z,6.61
2018-12-31T03:36:52.899Z,6.71
2018-12-31T03:39:41.713Z,6.78
2018-12-31T03:42:30.509Z,6.77
2018-12-31T03:45:19.328Z,6.68
2018-12-31T03:48:08.122Z,6.63
2018-12-31T03:50:56.947Z,5.26
2018-12-31T03:53:45.740Z,6.62
2018-12-31T03:56:34.565Z,6.68
2018-12-31T03:59:23.354Z,6.69
2018-12-31T04:02:12.175Z,5.16
2018-12-31T04:05:00.962Z,6.66
2018-12-31T04:07:53.147Z,5.58
2018-12-31T04:10:40.348Z,6.65
2018-12-31T04:13:29.150Z,6.46
2018-12-31T04:16:17.957Z,6.47
2018-12-31T04:19:06.782Z,6.46
2018-12-31T04:21:55.577Z,6.35
2018-12-31T04:24:44.390Z,6.38
2018-12-31T04:27:33.185Z,6.43
2018-12-31T04:30:14.687Z,5.95
2018-12-31T04:33:03.484Z,6.40
2018-12-31T04:35:52.314Z,6.42
2018-12-31T04:38:41.198Z,6.45
2018-12-31T04:41:30.012Z,6.40
2018-12-31T04:44:18.839Z,6.40
2018-12-31T04:47:07.697Z,6.45
2018-12-31T04:49:56.507Z,6.46
2018-12-31T04:55:44.405Z,6.48
2018-12-31T04:58:29.886Z,6.44
2018-12-31T05:01:18.721Z,6.45
2018-12-31T05:04:07.595Z,5.41
2018-12-31T05:06:56.449Z,6.34
2018-12-31T05:09:45.339Z,6.27
2018-12-31T05:12:34.260Z,6.03
2018-12-31T05:15:23.092Z,6.33
2018-12-31T05:18:11.923Z,6.20
2018-12-31T05:21:00.860Z,6.22
2018-12-31T05:23:49.696Z,6.31
2018-12-31T05:26:38.571Z,6.10
2018-12-31T05:29:27.446Z,6.11
2018-12-31T05:32:12.632Z,4.69
2018-12-31T05:35:01.444Z,5.78
2018-12-31T05:37:50.242Z,5.83
2018-12-31T05:40:39.059Z,5.87
2018-12-31T05:43:27.853Z,5.98
2018-12-31T05:46:16.675Z,6.05
2018-12-31T05:49:05.473Z,6.08
2018-12-31T05:51:54.301Z,6.12
2018-12-31T05:54:43.112Z,5.98
2018-12-31T05:57:32.241Z,4.59
2018-12-31T06:00:21.059Z,6.07
2018-12-31T06:03:09.862Z,5.95
2018-12-31T06:05:58.688Z,5.82
2018-12-31T06:08:47.479Z,5.62
2018-12-31T06:11:36.314Z,5.53
2018-12-31T06:14:25.183Z,5.66
2018-12-31T06:17:13.996Z,5.73
2018-12-31T06:20:02.790Z,5.63
2018-12-31T06:22:51.610Z,5.80
2018-12-31T06:25:40.406Z,5.85
2018-12-31T06:28:29.223Z,5.89
2018-12-31T06:31:18.015Z,5.91
2018-12-31T06:34:06.828Z,5.93
2018-12-31T06:36:55.621Z,4.52
2018-12-31T06:39:44.440Z,5.92
2018-12-31T06:42:33.240Z,5.90
2018-12-31T06:45:22.051Z,5.97
2018-12-31T06:48:10.856Z,5.98
2018-12-31T06:50:59.675Z,5.96
2018-12-31T06:53:48.483Z,5.38
2018-12-31T06:56:37.359Z,5.88
2018-12-31T06:59:26.176Z,5.96
2018-12-31T07:02:14.994Z,5.79
2018-12-31T07:08:32.203Z,5.52
2018-12-31T07:11:20.995Z,5.37
2018-12-31T07:14:09.807Z,5.58
2018-12-31T07:16:58.622Z,5.73
2018-12-31T07:19:47.423Z,5.78
2018-12-31T07:22:36.246Z,5.76
2018-12-31T07:25:25.038Z,5.84
2018-12-31T07:28:13.856Z,5.89
2018-12-31T07:31:02.654Z,6.02
2018-12-31T07:33:42.399Z,5.98
2018-12-31T07:36:31.194Z,5.04
2018-12-31T07:39:19.999Z,4.23
2018-12-31T07:42:09.105Z,5.71
2018-12-31T07:44:57.925Z,5.75
2018-12-31T07:47:46.739Z,4.88
2018-12-31T07:50:35.537Z,5.72
2018-12-31T07:53:24.343Z,5.80
2018-12-31T07:56:13.152Z,5.57
2018-12-31T07:59:01.980Z,5.56
2018-12-31T08:01:50.775Z,5.67
2018-12-31T08:04:39.584Z,5.85
2018-12-31T08:07:28.372Z,5.90
2018-12-31T08:10:17.186Z,6.03
2018-12-31T08:13:05.986Z,6.13
2018-12-31T08:15:54.798Z,4.43
2018-12-31T08:18:43.616Z,5.96
2018-12-31T08:21:51.430Z,5.62
2018-12-31T08:24:40.259Z,6.21
2018-12-31T08:27:29.296Z,6.06
2018-12-31T08:30:11.200Z,6.17
2018-12-31T08:32:59.989Z,6.23
2018-12-31T08:35:48.828Z,6.31
2018-12-31T08:38:37.629Z,6.35
2018-12-31T08:41:26.449Z,6.45
2018-12-31T08:44:15.241Z,5.67
2018-12-31T08:47:04.065Z,6.69
2018-12-31T08:49:52.865Z,6.75
2018-12-31T08:52:41.671Z,6.82
2018-12-31T08:55:30.996Z,5.91
2018-12-31T08:58:19.879Z,5.31
2018-12-31T09:01:08.692Z,6.97
2018-12-31T09:03:57.525Z,7.01
2018-12-31T09:06:46.330Z,7.00
2018-12-31T09:09:35.418Z,7.07
2018-12-31T09:12:24.218Z,7.15
2018-12-31T09:15:14.722Z,7.24
2018-12-31T09:18:03.539Z,7.25
2018-12-31T09:20:52.359Z,5.77
2018-12-31T09:23:41.455Z,7.42
2018-12-31T09:26:30.342Z,7.49
2018-12-31T09:29:19.191Z,7.57
2018-12-31T09:32:00.757Z,7.47
2018-12-31T09:34:49.554Z,7.54
2018-12-31T09:37:38.409Z,7.02
2018-12-31T09:40:27.202Z,7.66
2018-12-31T09:43:16.138Z,7.84
2018-12-31T09:46:04.924Z,7.89
2018-12-31T09:48:53.823Z,7.88
2018-12-31T09:51:42.781Z,6.88
2018-12-31T09:54:31.601Z,7.72
2018-12-31T09:57:39.418Z,7.79
2018-12-31T10:00:28.375Z,7.95
2018-12-31T10:03:17.165Z,8.10
2018-12-31T10:06:05.980Z,8.21
2018-12-31T10:08:54.793Z,8.19
2018-12-31T10:11:43.601Z,8.33
2018-12-31T10:14:32.418Z,8.30
2018-12-31T10:17:21.218Z,8.33
2018-12-31T10:20:10.023Z,8.38
2018-12-31T10:22:58.812Z,6.88
2018-12-31T10:25:47.625Z,8.64
2018-12-31T10:28:36.446Z,8.71
2018-12-31T10:31:18.446Z,8.63
2018-12-31T10:34:07.260Z,8.59
2018-12-31T10:36:56.063Z,8.46
2018-12-31T10:39:44.880Z,8.21
2018-12-31T10:42:33.677Z,8.23
2018-12-31T10:45:22.488Z,8.11
2018-12-31T10:48:11.294Z,8.09
2018-12-31T10:51:00.090Z,8.14
2018-12-31T10:53:48.897Z,6.57
2018-12-31T10:56:37.696Z,8.40
2018-12-31T10:59:26.507Z,8.60
2018-12-31T11:02:15.314Z,7.44
2018-12-31T11:08:18.906Z,7.48
2018-12-31T11:11:07.718Z,9.27
2018-12-31T11:13:56.529Z,9.40
2018-12-31T11:16:45.390Z,9.47
2018-12-31T11:19:34.219Z,9.48
2018-12-31T11:22:23.034Z,9.64
2018-12-31T11:25:11.840Z,9.61
2018-12-31T11:31:21.823Z,9.61
2018-12-31T11:34:10.625Z,9.61
2018-12-31T11:36:59.452Z,9.45
2018-12-31T11:39:48.242Z,8.20
2018-12-31T11:42:37.071Z,8.63
2018-12-31T11:45:25.862Z,8.74
2018-12-31T11:48:14.680Z,7.79
2018-12-31T11:51:03.474Z,9.34
2018-12-31T11:53:52.288Z,8.05
2018-12-31T11:56:41.116Z,9.44
2018-12-31T11:59:29.945Z,9.38
2018-12-31T12:02:23.528Z,9.22
2018-12-31T12:05:28.312Z,7.85
2018-12-31T12:08:17.097Z,9.33
2018-12-31T12:11:05.925Z,9.26
2018-12-31T12:13:54.725Z,9.25
2018-12-31T12:16:43.568Z,9.18
2018-12-31T12:19:32.366Z,9.01
2018-12-31T12:22:21.185Z,9.12
2018-12-31T12:25:09.990Z,9.19
2018-12-31T12:27:58.796Z,9.31
2018-12-31T12:30:49.329Z,9.35
2018-12-31T12:33:38.482Z,7.59
2018-12-31T12:36:28.654Z,9.27
2018-12-31T12:39:17.468Z,9.15
2018-12-31T12:42:06.337Z,9.17
2018-12-31T12:44:55.156Z,9.00
2018-12-31T12:47:43.950Z,9.05
2018-12-31T12:50:32.771Z,9.06
2018-12-31T12:53:21.560Z,9.06
2018-12-31T12:56:10.374Z,9.13
2018-12-31T12:59:19.910Z,9.19
2018-12-31T13:02:08.740Z,9.18
2018-12-31T13:05:03.553Z,9.41
2018-12-31T13:07:48.093Z,9.58
2018-12-31T13:10:36.904Z,9.75
2018-12-31T13:13:26.065Z,8.50
2018-12-31T13:16:14.871Z,10.10
2018-12-31T13:18:44.348Z,10.30
2018-12-31T13:27:22.994Z,10.80
2018-12-31T13:30:05.544Z,10.81
2018-12-31T13:32:54.397Z,10.30
2018-12-31T13:35:43.222Z,10.44
2018-12-31T13:38:32.046Z,10.17
2018-12-31T13:41:20.849Z,10.64
2018-12-31T13:44:09.689Z,9.91
2018-12-31T13:46:58.458Z,10.76
2018-12-31T13:49:47.272Z,9.51
2018-12-31T13:52:36.084Z,11.11
2018-12-31T13:55:24.911Z,9.77
2018-12-31T13:58:13.706Z,10.77
2018-12-31T14:01:02.533Z,10.25
2018-12-31T14:03:51.323Z,10.35
2018-12-31T14:06:41.865Z,10.24
2018-12-31T14:09:30.664Z,10.31
2018-12-31T14:15:13.699Z,10.28
2018-12-31T14:18:02.496Z,8.62
2018-12-31T14:20:51.324Z,10.13
2018-12-31T14:23:40.147Z,10.09
2018-12-31T14:26:28.958Z,10.16
2018-12-31T14:29:17.777Z,8.67
2018-12-31T14:31:59.345Z,9.74
2018-12-31T14:34:48.426Z,9.16
2018-12-31T14:37:37.263Z,9.78
2018-12-31T14:40:27.822Z,9.47
2018-12-31T14:43:16.617Z,9.46
2018-12-31T14:46:07.146Z,9.34
2018-12-31T14:48:55.936Z,9.11
2018-12-31T14:51:46.474Z,8.56
2018-12-31T14:54:35.278Z,9.02
2018-12-31T14:57:24.250Z,9.17
2018-12-31T15:00:13.176Z,7.75
2018-12-31T15:03:03.687Z,9.25
2018-12-31T15:05:52.508Z,8.43
2018-12-31T15:08:43.017Z,9.31
2018-12-31T15:11:31.828Z,9.28
2018-12-31T15:14:22.340Z,9.28
2018-12-31T15:17:11.143Z,9.09
2018-12-31T15:20:01.663Z,9.05
2018-12-31T15:22:50.469Z,9.07
2018-12-31T15:25:39.275Z,8.96
2018-12-31T15:28:28.069Z,8.83
2018-12-31T15:31:18.605Z,8.80
2018-12-31T15:34:07.403Z,8.73
2018-12-31T15:36:56.298Z,7.35
2018-12-31T15:39:45.098Z,8.05
2018-12-31T15:42:35.635Z,8.87
2018-12-31T15:45:24.423Z,8.92
2018-12-31T15:48:14.955Z,8.99
2018-12-31T15:51:03.762Z,9.06
2018-12-31T15:53:54.328Z,9.09
2018-12-31T15:56:43.151Z,9.14
2018-12-31T15:59:33.670Z,9.14
2018-12-31T16:02:22.488Z,9.14
2018-12-31T16:05:13.009Z,9.13
2018-12-31T16:08:01.815Z,9.05
2018-12-31T16:10:52.332Z,7.72
2018-12-31T16:13:41.265Z,8.91
2018-12-31T16:16:31.663Z,8.80
2018-12-31T16:19:13.323Z,8.86
2018-12-31T16:22:02.122Z,8.85
2018-12-31T16:24:50.930Z,8.23
2018-12-31T16:27:39.744Z,8.76
2018-12-31T16:30:28.581Z,7.14
2018-12-31T16:33:17.379Z,8.81
2018-12-31T16:36:06.207Z,8.80
2018-12-31T16:38:55.007Z,8.52
2018-12-31T16:41:43.827Z,8.79
2018-12-31T16:44:32.620Z,8.58
2018-12-31T16:47:21.436Z,8.15
2018-12-31T16:50:10.225Z,8.73
2018-12-31T16:52:59.022Z,8.61
2018-12-31T16:55:47.832Z,8.61
2018-12-31T16:58:36.624Z,8.60
2018-12-31T17:01:25.442Z,8.61
2018-12-31T17:04:14.225Z,8.52
2018-12-31T17:07:03.035Z,8.55
2018-12-31T17:09:51.828Z,8.59
2018-12-31T17:12:42.438Z,8.61
2018-12-31T17:15:32.227Z,8.64
2018-12-31T17:18:14.045Z,8.68
2018-12-31T17:21:02.855Z,7.18
2018-12-31T17:23:51.651Z,8.70
2018-12-31T17:26:40.465Z,8.65
2018-12-31T17:29:29.257Z,8.20
2018-12-31T17:32:18.081Z,7.71
2018-12-31T17:35:06.938Z,7.25
2018-12-31T17:37:57.475Z,8.62
2018-12-31T17:40:46.291Z,8.63
2018-12-31T17:43:36.831Z,8.14
2018-12-31T17:46:25.636Z,8.49
2018-12-31T17:49:16.169Z,8.47
2018-12-31T17:52:04.961Z,8.26
2018-12-31T17:54:55.498Z,6.80
2018-12-31T17:57:44.328Z,6.80
2018-12-31T18:00:34.840Z,8.32
2018-12-31T18:03:23.647Z,6.67
2018-12-31T18:06:12.540Z,8.22
2018-12-31T18:09:01.328Z,8.18
2018-12-31T18:11:51.869Z,8.15
2018-12-31T18:14:40.683Z,8.22
2018-12-31T18:17:31.219Z,7.32
2018-12-31T18:20:12.738Z,8.25
2018-12-31T18:23:01.555Z,6.72
2018-12-31T18:25:50.355Z,8.19
2018-12-31T18:28:39.156Z,8.18
2018-12-31T18:31:27.972Z,8.15
2018-12-31T18:34:16.773Z,8.10
2018-12-31T18:37:05.595Z,8.09
2018-12-31T18:39:58.022Z,8.09
2018-12-31T18:42:44.917Z,8.06
2018-12-31T18:45:33.708Z,8.08
2018-12-31T18:51:16.651Z,8.17
2018-12-31T18:54:05.449Z,8.19
2018-12-31T18:56:54.270Z,8.16
2018-12-31T18:59:43.063Z,8.13
2018-12-31T19:02:31.893Z,8.22
2018-12-31T19:05:20.683Z,8.16
2018-12-31T19:08:09.488Z,7.95
2018-12-31T19:10:58.282Z,7.90
2018-12-31T19:13:47.086Z,7.78
2018-12-31T19:16:35.877Z,7.78
2018-12-31T19:19:25.298Z,7.69
2018-12-31T19:22:15.229Z,7.74
2018-12-31T19:28:18.769Z,7.74
2018-12-31T19:31:07.562Z,6.82
2018-12-31T19:33:56.377Z,7.79
2018-12-31T19:36:45.170Z,7.73
2018-12-31T19:39:33.980Z,6.19
2018-12-31T19:42:22.781Z,7.75
2018-12-31T19:45:11.590Z,7.71
2018-12-31T19:48:02.109Z,7.70
2018-12-31T19:50:50.917Z,7.75
2018-12-31T19:54:00.474Z,7.67
2018-12-31T19:56:49.638Z,6.22
2018-12-31T19:59:38.430Z,6.50
2018-12-31T20:02:27.249Z,7.82
2018-12-31T20:05:16.110Z,7.80
2018-12-31T20:08:04.921Z,7.15
2018-12-31T20:10:53.744Z,7.89
2018-12-31T20:13:42.534Z,7.80
2018-12-31T20:16:31.378Z,7.82
2018-12-31T20:19:20.171Z,7.73
2018-12-31T20:22:01.449Z,7.81
2018-12-31T20:24:50.250Z,7.84
2018-12-31T20:27:40.781Z,7.83
2018-12-31T20:30:29.571Z,6.95
2018-12-31T20:33:20.114Z,7.35
2018-12-31T20:36:08.905Z,7.88
2018-12-31T20:38:59.441Z,7.79
2018-12-31T20:44:55.997Z,6.16
2018-12-31T20:47:44.788Z,7.76
2018-12-31T20:50:33.614Z,7.75
2018-12-31T20:53:29.216Z,7.81
2018-12-31T20:56:18.030Z,7.72
2018-12-31T20:59:06.819Z,7.80
2018-12-31T21:01:55.637Z,7.79
2018-12-31T21:04:44.446Z,7.78
2018-12-31T21:07:33.530Z,7.80
2018-12-31T21:10:22.331Z,7.79
2018-12-31T21:13:11.125Z,7.84
2018-12-31T21:15:59.931Z,7.77
2018-12-31T21:18:48.800Z,7.82
2018-12-31T21:21:30.293Z,7.79
2018-12-31T21:27:26.846Z,7.78
2018-12-31T21:30:15.642Z,7.74
2018-12-31T21:33:04.447Z,7.79
2018-12-31T21:35:53.238Z,7.77
2018-12-31T21:38:42.060Z,6.20
2018-12-31T21:41:30.861Z,7.80
2018-12-31T21:44:19.677Z,7.73
2018-12-31T21:47:10.184Z,7.76
2018-12-31T21:49:58.989Z,6.07
2018-12-31T21:52:49.527Z,7.84
2018-12-31T21:55:57.342Z,7.81
2018-12-31T21:58:46.148Z,7.70
2018-12-31T22:01:34.946Z,7.76
2018-12-31T22:04:23.764Z,7.75
2018-12-31T22:07:12.563Z,6.20
2018-12-31T22:10:01.380Z,7.74
2018-12-31T22:12:50.189Z,6.14
2018-12-31T22:15:38.983Z,5.94
2018-12-31T22:18:27.790Z,7.61
2018-12-31T22:21:16.598Z,7.58
2018-12-31T22:24:05.407Z,7.69
2018-12-31T22:26:54.210Z,7.79
2018-12-31T22:29:43.036Z,6.33
2018-12-31T22:32:31.825Z,7.74
2018-12-31T22:35:20.634Z,7.74
2018-12-31T22:38:11.150Z,7.83
2018-12-31T22:40:59.958Z,7.73
2018-12-31T22:43:50.471Z,7.74
2018-12-31T22:46:39.287Z,7.58
2018-12-31T22:49:29.833Z,7.58
2018-12-31T22:52:18.647Z,7.63
2018-12-31T22:55:07.444Z,7.68
2018-12-31T22:57:56.280Z,7.64
2018-12-31T23:00:46.864Z,6.21
2018-12-31T23:03:35.676Z,7.58
2018-12-31T23:06:24.486Z,7.64
2018-12-31T23:09:13.293Z,7.65
2018-12-31T23:12:03.880Z,7.61
2018-12-31T23:14:52.700Z,7.62
2018-12-31T23:17:43.233Z,5.87
2018-12-31T23:20:32.641Z,7.57
2018-12-31T23:23:14.055Z,7.63
2018-12-31T23:26:02.864Z,7.58
2018-12-31T23:28:52.626Z,7.49
2018-12-31T23:31:42.190Z,7.51
2018-12-31T23:34:30.996Z,7.39
2018-12-31T23:37:19.877Z,7.31
2018-12-31T23:40:29.570Z,5.71
2018-12-31T23:43:18.390Z,7.42
2018-12-31T23:46:07.210Z,7.32
2018-12-31T23:48:56.028Z,7.29
2018-12-31T23:51:44.835Z,6.78
2018-12-31T23:54:33.639Z,7.32
2018-12-31T23:57:22.439Z,7.31
